Vindmåler ude af drift - anemometer is down due to maintenance


Webcam more information My webcam


Lyn radar more information blitzortung!


Regn radar more information rain snow radar


Du finder også vores vejrinformationer på:

UK Metoffice

European Weather Network

WeatherCloud

Weather Underground

AWEKAS

Citizen Weather Observer Program (CWOP)



Ingen særlig opmærksomhed af vejret er påkrævet.    Der er ingen vejr varsler

Lokal METAR Rapport

   
EBAW - Antwerp
Opdateret: 19-11-2018 02:20
Klart  
Klart  
   Vind: ØNØ 3.1 m/s
Vind: ØNØ 3.1 m/s
Temperatur: 2°C
Kuldeindeks: -1°C
Dugpunkt: -3°C
Luftfugtighed: 70%
Barometer: 1024 hPa
Sigtbarhed: mere end 10 km
Sky detaljer: Klart ft
EBAW 190120Z AUTO 06006KT CAVOK 02/M03 Q1024
EBLG - Liège
Opdateret: 19-11-2018 02:20
Klart  
Klart  
   Vind: ØNØ 5.1 m/s
Vind: ØNØ 5.1 m/s
Temperatur: -1°C
Kuldeindeks: -6°C
Dugpunkt: -4°C
Luftfugtighed: 80%
Barometer: 1022 hPa
Sigtbarhed: mere end 10 km
Sky detaljer: Klart ft
EBLG 190120Z 06010KT CAVOK M01/M04 Q1022 NOSIG
EBCV - Mons/Bergen
Opdateret: 19-11-2018 01:55
Klart  
Klart  
   Vind: NØ 6.2 m/s
Vind: NØ 6.2 m/s
Temperatur: 1°C
Kuldeindeks: -4°C
Dugpunkt: -3°C
Luftfugtighed: 75%
Barometer: 1022 hPa
Skyet: Clear
Sigtbarhed: mere end 10 km
Sky detaljer: Klart ft
EBCV 190055Z AUTO 05012KT 9999 NCD 01/M03 Q1022 BLU
EHBK - Maastricht
Opdateret: 19-11-2018 02:25
Klart  
Klart  
   Vind: NØ 4.6 m/s
Vind: NØ 4.6 m/s
Temperatur: 0°C
Kuldeindeks: -4°C
Dugpunkt: -3°C
Luftfugtighed: 80%
Barometer: 1022 hPa
Skyet: Clear
Sigtbarhed: 9 km
Sky detaljer: Klart ft
EHBK 190125Z AUTO 04009KT 9000 NCD M00/M03 Q1022
ELLX - Luxemburg
Opdateret: 19-11-2018 02:20
Klart  
Klart  
   Vind: NØ 7.7 m/s
Vind: NØ 7.7 m/s
Temperatur: 0°C
Kuldeindeks: -6°C
Dugpunkt: -11°C
Luftfugtighed: 44%
Barometer: 1018 hPa
Skyet: Clear
Sigtbarhed: mere end 10 km
Sky detaljer: Klart ft
ELLX 190120Z AUTO 04015KT 9999 NCD M00/M11 Q1018 NOSIG
EBOS - Oostende
Opdateret: 19-11-2018 02:20
Klart  
Klart  
   Vind: ØNØ 7.2 m/s
Vind: ØNØ 7.2 m/s
Temperatur: 3°C
Kuldeindeks: -2°C
Dugpunkt: 0°C
Luftfugtighed: 81%
Barometer: 1024 hPa
Sigtbarhed: mere end 10 km
Sky detaljer: Klart ft
EBOS 190120Z 07014KT CAVOK 03/M00 Q1024 NOSIG

Script udviklet af  Saratoga-weather.org Tilpasset til denne template af  Weerstation Leuven

Udstyr som vi anvender:

Vejrstation
Davis VP2

Vejrprogram
Meteobridge

Vejrserver
Meteobridge Pro

Hjemmeside host
Unoeuro

Davis VP2

Meteobridge

Meteobridge Pro

Unoeuro